createdAt,value
2022-11-25T00:01:30.543Z,2.90
2022-11-25T00:03:58.897Z,2.65
2022-11-25T00:06:28.017Z,2.25
2022-11-25T00:09:03.304Z,3.05
2022-11-25T00:13:57.578Z,2.85
2022-11-25T00:16:26.395Z,3.28
2022-11-25T00:18:55.523Z,2.80
2022-11-25T00:21:27.822Z,2.42
2022-11-25T00:24:00.467Z,3.03
2022-11-25T00:26:28.837Z,2.95
2022-11-25T00:28:58.703Z,2.83
2022-11-25T00:31:31.172Z,3.03
2022-11-25T00:33:58.358Z,3.53
2022-11-25T00:36:27.494Z,3.55
2022-11-25T00:38:59.397Z,3.35
2022-11-25T00:41:45.589Z,2.80
2022-11-25T00:44:33.683Z,3.42
2022-11-25T00:47:00.347Z,2.80
2022-11-25T00:49:27.036Z,3.15
2022-11-25T00:51:53.742Z,4.35
2022-11-25T00:54:20.184Z,3.30
2022-11-25T00:56:46.671Z,2.60
2022-11-25T00:59:13.132Z,2.97
2022-11-25T01:01:39.928Z,3.03
2022-11-25T01:04:07.258Z,3.38
2022-11-25T01:06:34.712Z,2.80
2022-11-25T01:09:01.636Z,3.08
2022-11-25T01:11:28.115Z,3.33
2022-11-25T01:14:00.923Z,3.03
2022-11-25T01:16:28.785Z,2.22
2022-11-25T01:18:55.289Z,2.35
2022-11-25T01:21:24.717Z,3.03
2022-11-25T01:23:51.946Z,4.97
2022-11-25T01:26:21.541Z,2.88
2022-11-25T01:28:49.065Z,2.65
2022-11-25T01:31:19.027Z,2.75
2022-11-25T01:33:47.118Z,3.00
2022-11-25T01:36:16.283Z,3.45
2022-11-25T01:38:43.832Z,2.80
2022-11-25T01:41:13.020Z,2.90
2022-11-25T01:43:40.104Z,2.85
2022-11-25T01:46:18.735Z,2.90
2022-11-25T01:48:58.750Z,3.30
2022-11-25T01:51:27.932Z,3.45
2022-11-25T01:53:59.646Z,2.92
2022-11-25T01:56:30.010Z,2.78
2022-11-25T01:58:56.860Z,2.83
2022-11-25T02:01:24.099Z,3.35
2022-11-25T02:03:54.893Z,2.78
2022-11-25T02:06:28.030Z,3.58
2022-11-25T02:08:59.208Z,3.00
2022-11-25T02:11:28.461Z,2.75
2022-11-25T02:13:55.132Z,2.70
2022-11-25T02:16:21.649Z,2.80
2022-11-25T02:18:49.824Z,3.05
2022-11-25T02:21:40.441Z,2.92
2022-11-25T02:24:16.091Z,3.20
2022-11-25T02:26:42.615Z,3.53
2022-11-25T02:29:09.055Z,2.88
2022-11-25T02:31:35.508Z,3.08
2022-11-25T02:34:01.982Z,3.10
2022-11-25T02:36:28.614Z,2.80
2022-11-25T02:38:58.172Z,2.83
2022-11-25T02:41:34.665Z,2.42
2022-11-25T02:44:02.028Z,2.50
2022-11-25T02:46:29.424Z,3.13
2022-11-25T02:49:13.487Z,2.90
2022-11-25T02:51:43.719Z,3.30
2022-11-25T02:54:11.774Z,2.90
2022-11-25T02:56:38.611Z,3.40
2022-11-25T02:59:05.083Z,3.22
2022-11-25T03:01:32.171Z,2.10
2022-11-25T03:03:59.490Z,3.13
2022-11-25T03:06:26.615Z,2.65
2022-11-25T03:08:53.819Z,2.25
2022-11-25T03:11:20.292Z,2.40
2022-11-25T03:13:46.722Z,2.78
2022-11-25T03:16:13.200Z,2.83
2022-11-25T03:18:39.612Z,1.50
2022-11-25T03:21:07.260Z,2.83
2022-11-25T03:23:33.723Z,3.13
2022-11-25T03:26:00.187Z,3.05
2022-11-25T03:28:26.643Z,2.65
2022-11-25T03:30:53.060Z,3.35
2022-11-25T03:33:19.571Z,2.92
2022-11-25T03:35:48.292Z,4.93
2022-11-25T03:38:14.757Z,3.03
2022-11-25T03:40:41.177Z,4.05
2022-11-25T03:43:07.631Z,3.13
2022-11-25T03:45:34.210Z,3.25
2022-11-25T03:48:00.781Z,3.08
2022-11-25T03:50:27.374Z,3.55
2022-11-25T03:52:53.834Z,2.40
2022-11-25T03:55:20.305Z,2.67
2022-11-25T03:57:46.721Z,2.50
2022-11-25T04:00:14.547Z,3.13
2022-11-25T04:02:41.008Z,1.58
2022-11-25T04:05:07.947Z,3.33
2022-11-25T04:07:34.425Z,0.88
2022-11-25T04:10:00.931Z,3.80
2022-11-25T04:12:45.763Z,2.92
2022-11-25T04:15:12.468Z,2.63
2022-11-25T04:17:38.893Z,3.20
2022-11-25T04:20:06.003Z,3.15
2022-11-25T04:22:32.455Z,2.90
2022-11-25T04:24:58.881Z,3.10
2022-11-25T04:27:25.307Z,1.55
2022-11-25T04:29:51.750Z,4.25
2022-11-25T04:32:18.363Z,2.78
2022-11-25T04:34:44.814Z,3.10
2022-11-25T04:37:11.273Z,2.88
2022-11-25T04:39:37.749Z,1.80
2022-11-25T04:42:22.783Z,2.97
2022-11-25T04:45:14.043Z,3.20
2022-11-25T04:47:36.075Z,2.22
2022-11-25T04:50:03.669Z,2.50
2022-11-25T04:52:30.229Z,1.42
2022-11-25T04:54:56.654Z,2.35
2022-11-25T04:57:23.150Z,2.05
2022-11-25T04:59:49.587Z,3.13
2022-11-25T05:02:20.685Z,2.40
2022-11-25T05:04:49.170Z,4.25
2022-11-25T05:07:18.104Z,3.10
2022-11-25T05:09:45.396Z,2.30
2022-11-25T05:12:22.182Z,3.67
2022-11-25T05:14:49.435Z,3.50
2022-11-25T05:17:18.538Z,3.72
2022-11-25T05:19:46.075Z,3.28
2022-11-25T05:22:21.014Z,2.60
2022-11-25T05:24:47.784Z,2.58
2022-11-25T05:27:14.921Z,4.05
2022-11-25T05:29:41.693Z,2.70
2022-11-25T05:32:08.792Z,3.03
2022-11-25T05:34:35.668Z,4.47
2022-11-25T05:37:02.204Z,2.72
2022-11-25T05:39:28.648Z,2.33
2022-11-25T05:41:55.075Z,4.07
2022-11-25T05:44:23.186Z,3.30
2022-11-25T05:46:50.249Z,3.88
2022-11-25T05:49:17.735Z,3.70
2022-11-25T05:51:44.559Z,4.13
2022-11-25T05:54:11.015Z,4.05
2022-11-25T05:56:37.968Z,4.40
2022-11-25T05:59:05.946Z,3.47
2022-11-25T06:01:33.574Z,3.90
2022-11-25T06:04:01.597Z,4.15
2022-11-25T06:06:28.226Z,4.15
2022-11-25T06:08:54.837Z,4.60
2022-11-25T06:11:21.348Z,4.85
2022-11-25T06:13:47.885Z,4.40
2022-11-25T06:16:17.134Z,1.70
2022-11-25T06:18:43.877Z,1.52
2022-11-25T06:21:10.996Z,3.60
2022-11-25T06:23:38.584Z,1.95
2022-11-25T06:26:05.084Z,3.15
2022-11-25T06:28:31.621Z,3.80
2022-11-25T06:31:04.677Z,4.55
2022-11-25T06:33:31.166Z,3.55
2022-11-25T06:35:57.563Z,4.43
2022-11-25T06:38:23.975Z,2.20
2022-11-25T06:40:50.465Z,3.53
2022-11-25T06:43:16.860Z,4.03
2022-11-25T06:45:43.505Z,3.13
2022-11-25T06:48:09.945Z,3.50
2022-11-25T06:50:36.404Z,2.17
2022-11-25T06:53:02.902Z,5.65
2022-11-25T06:55:29.314Z,4.53
2022-11-25T06:58:08.455Z,4.40
2022-11-25T07:00:42.187Z,4.55
2022-11-25T07:03:08.678Z,5.05
2022-11-25T07:05:35.135Z,4.38
2022-11-25T07:08:01.585Z,4.75
2022-11-25T07:10:28.015Z,5.25
2022-11-25T07:12:54.574Z,3.90
2022-11-25T07:15:21.187Z,2.97
2022-11-25T07:17:47.610Z,4.63
2022-11-25T07:20:14.075Z,6.35
2022-11-25T07:22:40.535Z,6.00
2022-11-25T07:25:09.333Z,6.75
2022-11-25T07:27:35.763Z,8.27
2022-11-25T07:32:48.735Z,6.63
2022-11-25T07:35:15.278Z,4.28
2022-11-25T07:37:41.712Z,5.47
2022-11-25T07:40:08.635Z,5.60
2022-11-25T07:42:35.080Z,5.05
2022-11-25T07:45:01.582Z,4.93
2022-11-25T07:47:28.071Z,4.75
2022-11-25T07:49:54.527Z,4.03
2022-11-25T07:52:20.986Z,5.38
2022-11-25T07:54:47.512Z,4.60
2022-11-25T07:57:13.930Z,4.30
2022-11-25T07:59:41.537Z,5.10
2022-11-25T08:02:10.292Z,5.50
2022-11-25T08:04:37.423Z,4.95
2022-11-25T08:07:03.891Z,5.93
2022-11-25T08:09:30.570Z,5.07
2022-11-25T08:11:56.992Z,4.72
2022-11-25T08:14:23.508Z,4.20
2022-11-25T08:16:50.012Z,3.63
2022-11-25T08:19:17.554Z,5.13
2022-11-25T08:21:44.754Z,5.22
2022-11-25T08:24:20.570Z,5.88
2022-11-25T08:26:47.974Z,5.82
2022-11-25T08:29:16.344Z,4.82
2022-11-25T08:31:43.217Z,4.72
2022-11-25T08:34:18.355Z,4.50
2022-11-25T08:36:48.331Z,5.25
2022-11-25T08:39:50.439Z,4.68
2022-11-25T08:42:04.495Z,4.55
2022-11-25T08:44:31.257Z,3.22
2022-11-25T08:46:57.816Z,4.15
2022-11-25T08:49:26.808Z,5.35
2022-11-25T08:51:53.411Z,3.70
2022-11-25T08:54:19.873Z,4.38
2022-11-25T08:56:46.331Z,2.50
2022-11-25T08:59:13.382Z,4.38
2022-11-25T09:01:39.998Z,2.72
2022-11-25T09:04:06.576Z,4.53
2022-11-25T09:06:33.015Z,3.25
2022-11-25T09:09:01.691Z,3.97
2022-11-25T09:11:28.501Z,2.75
2022-11-25T09:13:55.085Z,4.18
2022-11-25T09:16:21.681Z,1.85
2022-11-25T09:18:54.058Z,2.88
2022-11-25T09:21:22.597Z,2.75
2022-11-25T09:23:51.195Z,2.38
2022-11-25T09:26:25.139Z,3.20
2022-11-25T09:28:52.072Z,2.72
2022-11-25T09:31:19.643Z,4.55
2022-11-25T09:33:46.127Z,2.80
2022-11-25T09:36:14.967Z,2.63
2022-11-25T09:38:44.633Z,2.83
2022-11-25T09:41:50.323Z,2.03
2022-11-25T09:44:35.315Z,1.50
2022-11-25T09:47:32.919Z,2.40
2022-11-25T09:50:38.119Z,2.63
2022-11-25T09:53:17.331Z,1.85
2022-11-25T09:55:47.346Z,2.20
2022-11-25T09:58:34.412Z,2.30
2022-11-25T10:01:06.279Z,2.10
2022-11-25T10:03:41.301Z,2.83
2022-11-25T10:06:21.224Z,2.20
2022-11-25T10:08:53.102Z,2.85
2022-11-25T10:11:26.684Z,1.60
2022-11-25T10:14:14.936Z,3.53
2022-11-25T10:16:57.581Z,2.15
2022-11-25T10:19:48.702Z,3.90
2022-11-25T10:22:30.678Z,2.05
2022-11-25T10:25:00.398Z,2.03
2022-11-25T10:27:44.386Z,2.72
2022-11-25T10:30:23.938Z,3.40
2022-11-25T10:33:15.386Z,3.10
2022-11-25T10:35:52.783Z,1.83
2022-11-25T10:38:35.945Z,3.67
2022-11-25T10:41:04.608Z,2.03
2022-11-25T10:43:32.681Z,3.55
2022-11-25T10:46:08.136Z,4.40
2022-11-25T10:49:05.652Z,4.30
2022-11-25T10:51:45.909Z,3.20
2022-11-25T10:54:27.712Z,3.15
2022-11-25T10:57:03.012Z,4.63
2022-11-25T10:59:36.256Z,2.70
2022-11-25T11:02:19.537Z,2.35
2022-11-25T11:05:09.417Z,1.65
2022-11-25T11:07:41.590Z,2.85
2022-11-25T11:10:26.498Z,3.45
2022-11-25T11:13:00.560Z,2.17
2022-11-25T11:15:28.362Z,4.25
2022-11-25T11:17:56.572Z,2.53
2022-11-25T11:20:30.241Z,3.53
2022-11-25T11:22:58.360Z,2.50
2022-11-25T11:25:29.033Z,2.67
2022-11-25T11:27:55.847Z,3.15
2022-11-25T11:30:25.407Z,3.63
2022-11-25T11:33:33.179Z,2.38
2022-11-25T11:36:23.976Z,1.70
2022-11-25T11:38:53.732Z,2.25
2022-11-25T11:41:22.876Z,3.15
2022-11-25T11:44:04.853Z,3.47
2022-11-25T11:46:49.901Z,1.70
2022-11-25T11:49:47.185Z,2.05
2022-11-25T11:52:30.431Z,2.97
2022-11-25T11:55:12.722Z,2.03
2022-11-25T11:57:50.341Z,1.63
2022-11-25T12:00:19.660Z,3.13
2022-11-25T12:02:55.351Z,2.85
2022-11-25T12:05:27.328Z,2.25
2022-11-25T12:08:11.970Z,3.33
2022-11-25T12:11:17.335Z,2.38
2022-11-25T12:13:54.359Z,2.15
2022-11-25T12:16:27.310Z,1.73
2022-11-25T12:19:10.912Z,1.83
2022-11-25T12:21:52.881Z,2.58
2022-11-25T12:24:44.455Z,2.65
2022-11-25T12:27:25.857Z,3.97
2022-11-25T12:30:10.370Z,2.55
2022-11-25T12:32:58.579Z,2.15
2022-11-25T12:35:38.040Z,2.50
2022-11-25T12:38:04.445Z,2.80
2022-11-25T12:40:41.084Z,4.15
2022-11-25T12:43:28.719Z,3.75
2022-11-25T12:46:07.421Z,3.30
2022-11-25T12:48:37.670Z,1.95
2022-11-25T12:51:20.247Z,2.72
2022-11-25T12:53:49.697Z,3.13
2022-11-25T12:56:24.537Z,2.92
2022-11-25T12:59:12.318Z,1.42
2022-11-25T13:02:16.315Z,2.15
2022-11-25T13:05:39.594Z,2.45
2022-11-25T13:08:36.341Z,5.13
2022-11-25T13:11:13.452Z,6.05
2022-11-25T13:13:59.780Z,5.82
2022-11-25T13:16:28.361Z,3.25
2022-11-25T13:18:56.169Z,2.53
2022-11-25T13:21:24.942Z,4.90
2022-11-25T13:23:52.581Z,3.45
2022-11-25T13:26:36.197Z,5.05
2022-11-25T13:29:09.601Z,3.17
2022-11-25T13:31:59.009Z,3.50
2022-11-25T13:34:28.109Z,3.95
2022-11-25T13:36:59.396Z,4.57
2022-11-25T13:39:33.473Z,6.25
2022-11-25T13:42:25.812Z,8.73
2022-11-25T13:44:54.783Z,7.93
2022-11-25T13:47:44.713Z,8.07
2022-11-25T13:50:21.678Z,5.97
2022-11-25T13:52:58.688Z,5.18
2022-11-25T13:55:36.143Z,3.25
2022-11-25T13:58:29.457Z,4.05
2022-11-25T14:00:58.859Z,4.43
2022-11-25T14:03:25.378Z,4.38
2022-11-25T14:06:13.087Z,3.92
2022-11-25T14:09:02.800Z,3.95
2022-11-25T14:11:37.522Z,4.43
2022-11-25T14:14:15.107Z,3.58
2022-11-25T14:16:48.937Z,3.78
2022-11-25T14:19:51.517Z,2.22
2022-11-25T14:22:35.763Z,3.53
2022-11-25T14:25:16.224Z,3.15
2022-11-25T14:27:48.261Z,3.28
2022-11-25T14:30:16.320Z,0.90
2022-11-25T14:33:08.273Z,4.00
2022-11-25T14:35:45.327Z,3.97
2022-11-25T14:38:25.363Z,3.97
2022-11-25T14:41:00.250Z,3.28
2022-11-25T14:43:28.885Z,3.25
2022-11-25T14:46:15.693Z,3.13
2022-11-25T14:48:43.733Z,3.83
2022-11-25T14:51:13.743Z,4.07
2022-11-25T14:53:48.155Z,2.05
2022-11-25T14:56:22.373Z,3.10
2022-11-25T14:58:53.929Z,3.13
2022-11-25T15:01:23.957Z,3.40
2022-11-25T15:03:52.382Z,4.18
2022-11-25T15:06:21.018Z,4.00
2022-11-25T15:08:55.758Z,4.47
2022-11-25T15:11:26.102Z,3.42
2022-11-25T15:13:58.787Z,3.67
2022-11-25T15:16:31.600Z,5.25
2022-11-25T15:19:01.649Z,5.22
2022-11-25T15:21:48.295Z,3.00
2022-11-25T15:24:40.997Z,4.85
2022-11-25T15:29:43.395Z,5.13
2022-11-25T15:32:20.211Z,4.15
2022-11-25T15:34:47.661Z,4.40
2022-11-25T15:37:14.284Z,4.80
2022-11-25T15:39:41.250Z,5.10
2022-11-25T15:42:28.404Z,5.53
2022-11-25T15:45:09.859Z,4.15
2022-11-25T15:47:36.438Z,1.55
2022-11-25T15:50:03.075Z,4.05
2022-11-25T15:52:33.626Z,2.45
2022-11-25T15:55:08.062Z,4.40
2022-11-25T15:57:37.811Z,4.03
2022-11-25T16:00:14.950Z,2.50
2022-11-25T16:02:41.519Z,3.75
2022-11-25T16:05:16.775Z,3.15
2022-11-25T16:07:52.532Z,4.40
2022-11-25T16:10:30.830Z,4.35
2022-11-25T16:13:21.094Z,2.10
2022-11-25T16:16:07.114Z,3.85
2022-11-25T16:18:40.119Z,2.33
2022-11-25T16:21:17.137Z,4.10
2022-11-25T16:23:49.230Z,1.73
2022-11-25T16:26:22.508Z,3.88
2022-11-25T16:28:57.539Z,3.95
2022-11-25T16:31:24.662Z,2.75
2022-11-25T16:33:58.660Z,3.53
2022-11-25T16:36:25.133Z,3.70
2022-11-25T16:38:53.816Z,3.20
2022-11-25T16:41:25.020Z,2.90
2022-11-25T16:43:51.972Z,3.08
2022-11-25T16:46:19.845Z,4.10
2022-11-25T16:48:47.150Z,2.38
2022-11-25T16:51:16.357Z,1.70
2022-11-25T16:53:44.137Z,4.95
2022-11-25T16:56:29.573Z,9.30
2022-11-25T16:58:57.515Z,13.90
2022-11-25T17:01:27.462Z,12.30
2022-11-25T17:03:54.220Z,5.97
2022-11-25T17:06:23.854Z,2.22
2022-11-25T17:08:50.961Z,7.30
2022-11-25T17:11:23.812Z,3.97
2022-11-25T17:13:53.309Z,4.57
2022-11-25T17:16:23.563Z,5.00
2022-11-25T17:18:53.237Z,3.83
2022-11-25T17:21:20.485Z,5.13
2022-11-25T17:23:50.114Z,4.80
2022-11-25T17:26:37.323Z,4.07
2022-11-25T17:29:08.780Z,2.87
2022-11-25T17:31:38.157Z,4.72
2022-11-25T17:34:04.984Z,2.90
2022-11-25T17:36:31.514Z,3.38
2022-11-25T17:38:58.057Z,4.38
2022-11-25T17:41:28.126Z,4.68
2022-11-25T17:43:55.130Z,5.00
2022-11-25T17:46:21.827Z,4.88
2022-11-25T17:48:48.378Z,4.88
2022-11-25T17:51:14.954Z,3.15
2022-11-25T17:53:41.633Z,5.03
2022-11-25T17:56:27.362Z,3.90
2022-11-25T18:01:21.197Z,1.17
2022-11-25T18:03:50.678Z,5.55
2022-11-25T18:06:17.171Z,6.05
2022-11-25T18:08:43.680Z,6.20
2022-11-25T18:11:15.079Z,5.38
2022-11-25T18:13:43.798Z,5.15
2022-11-25T18:16:11.439Z,5.47
2022-11-25T18:18:37.962Z,5.50
2022-11-25T18:21:04.647Z,5.68
2022-11-25T18:23:31.628Z,5.82
2022-11-25T18:26:01.828Z,7.07
2022-11-25T18:28:31.810Z,6.72
2022-11-25T18:31:04.558Z,6.05
2022-11-25T18:33:32.394Z,6.82
2022-11-25T18:35:58.974Z,5.32
2022-11-25T18:38:25.490Z,3.10
2022-11-25T18:40:54.120Z,6.03
2022-11-25T18:43:24.570Z,5.55
2022-11-25T18:45:52.808Z,5.30
2022-11-25T18:48:19.322Z,5.75
2022-11-25T18:50:46.996Z,2.55
2022-11-25T18:53:13.848Z,5.57
2022-11-25T18:55:40.676Z,6.20
2022-11-25T18:58:32.707Z,6.30
2022-11-25T19:01:04.192Z,6.55
2022-11-25T19:03:30.951Z,5.82
2022-11-25T19:06:03.299Z,6.07
2022-11-25T19:08:30.637Z,5.95
2022-11-25T19:10:57.728Z,6.60
2022-11-25T19:13:29.675Z,7.00
2022-11-25T19:16:02.306Z,3.80
2022-11-25T19:18:29.351Z,6.22
2022-11-25T19:20:56.294Z,7.10
2022-11-25T19:23:25.702Z,6.70
2022-11-25T19:25:54.971Z,6.70
2022-11-25T19:28:22.659Z,7.63
2022-11-25T19:30:53.329Z,5.43
2022-11-25T19:33:35.477Z,5.47
2022-11-25T19:36:02.381Z,6.30
2022-11-25T19:38:30.059Z,6.00
2022-11-25T19:40:57.916Z,3.03
2022-11-25T19:43:29.014Z,6.32
2022-11-25T19:45:57.773Z,2.47
2022-11-25T19:48:27.320Z,6.10
2022-11-25T19:50:59.833Z,6.88
2022-11-25T19:53:33.118Z,3.38
2022-11-25T19:56:04.562Z,6.57
2022-11-25T19:58:32.091Z,6.95
2022-11-25T20:01:02.800Z,6.10
2022-11-25T20:03:31.340Z,6.70
2022-11-25T20:05:58.741Z,5.07
2022-11-25T20:08:28.241Z,6.38
2022-11-25T20:10:56.107Z,7.53
2022-11-25T20:13:23.718Z,7.22
2022-11-25T20:15:51.233Z,9.32
2022-11-25T20:18:24.304Z,8.27
2022-11-25T20:20:59.124Z,6.75
2022-11-25T20:23:30.101Z,8.48
2022-11-25T20:25:56.779Z,7.63
2022-11-25T20:28:27.279Z,7.40
2022-11-25T20:30:54.685Z,14.50
2022-11-25T20:33:24.652Z,7.72
2022-11-25T20:35:54.464Z,7.90
2022-11-25T20:38:23.916Z,8.57
2022-11-25T20:40:53.522Z,8.15
2022-11-25T20:43:53.042Z,6.60
2022-11-25T20:46:22.995Z,7.70
2022-11-25T20:48:53.370Z,7.80
2022-11-25T20:51:21.817Z,7.82
2022-11-25T20:53:53.428Z,4.00
2022-11-25T20:56:22.850Z,6.88
2022-11-25T20:58:49.423Z,8.15
2022-11-25T21:01:16.890Z,7.38
2022-11-25T21:03:45.071Z,7.80
2022-11-25T21:06:21.047Z,8.07
2022-11-25T21:08:51.158Z,8.88
2022-11-25T21:11:19.700Z,9.07
2022-11-25T21:13:47.283Z,7.75
2022-11-25T21:16:14.103Z,8.80
2022-11-25T21:18:41.425Z,8.10
2022-11-25T21:21:16.538Z,9.82
2022-11-25T21:23:44.979Z,9.07
2022-11-25T21:26:23.241Z,8.88
2022-11-25T21:28:52.106Z,8.20
2022-11-25T21:31:21.944Z,8.18
2022-11-25T21:33:49.451Z,9.10
2022-11-25T21:36:22.336Z,8.10
2022-11-25T21:38:51.711Z,9.02
2022-11-25T21:41:19.224Z,9.32
2022-11-25T21:43:49.371Z,10.13
2022-11-25T21:46:21.918Z,9.63
2022-11-25T21:48:48.491Z,9.68
2022-11-25T21:51:21.645Z,9.43
2022-11-25T21:53:48.837Z,9.27
2022-11-25T21:56:26.265Z,10.25
2022-11-25T21:58:53.027Z,9.93
2022-11-25T22:01:20.477Z,10.23
2022-11-25T22:03:47.200Z,11.68
2022-11-25T22:06:25.793Z,9.95
2022-11-25T22:08:52.387Z,9.90
2022-11-25T22:11:23.756Z,10.73
2022-11-25T22:13:51.118Z,10.50
2022-11-25T22:16:24.653Z,10.07
2022-11-25T22:18:51.243Z,10.35
2022-11-25T22:21:17.726Z,10.00
2022-11-25T22:23:44.335Z,10.73
2022-11-25T22:26:34.039Z,10.98
2022-11-25T22:29:01.999Z,10.93
2022-11-25T22:31:29.139Z,11.13
2022-11-25T22:33:55.888Z,10.07
2022-11-25T22:36:28.083Z,11.80
2022-11-25T22:38:54.607Z,11.90
2022-11-25T22:41:21.206Z,12.23
2022-11-25T22:43:51.684Z,14.10
2022-11-25T22:46:18.608Z,11.05
2022-11-25T22:48:45.266Z,10.60
2022-11-25T22:51:18.488Z,11.45
2022-11-25T22:53:45.050Z,11.57
2022-11-25T22:56:17.798Z,11.60
2022-11-25T22:58:44.434Z,13.95
2022-11-25T23:01:16.092Z,14.05
2022-11-25T23:03:44.035Z,14.40
2022-11-25T23:06:12.737Z,12.73
2022-11-25T23:08:40.026Z,13.05
2022-11-25T23:11:06.725Z,13.05
2022-11-25T23:13:33.260Z,15.25
2022-11-25T23:16:04.375Z,14.07
2022-11-25T23:18:38.605Z,14.27
2022-11-25T23:21:17.921Z,15.37
2022-11-25T23:23:45.724Z,16.88
2022-11-25T23:26:13.727Z,15.80
2022-11-25T23:28:40.442Z,14.98
2022-11-25T23:31:07.091Z,15.48
2022-11-25T23:33:52.339Z,16.98
2022-11-25T23:36:35.507Z,14.65
2022-11-25T23:39:03.742Z,14.85
2022-11-25T23:41:32.989Z,14.05
2022-11-25T23:44:11.101Z,17.20
2022-11-25T23:46:37.632Z,20.13
2022-11-25T23:49:09.649Z,21.05
2022-11-25T23:51:37.039Z,24.58
2022-11-25T23:54:03.695Z,23.48
2022-11-25T23:56:30.402Z,24.25
2022-11-25T23:58:56.924Z,21.65
